sensor_id;sensor_type;location;lat;lon;timestamp;P1;durP1;ratioP1;P2;durP2;ratioP2
2840;SDS011;53423;49.224;12.074;2022-11-15T00:01:07;23.50;;;20.87;;
2840;SDS011;53423;49.224;12.074;2022-11-15T00:03:35;25.57;;;20.93;;
2840;SDS011;53423;49.224;12.074;2022-11-15T00:06:03;23.60;;;20.63;;
2840;SDS011;53423;49.224;12.074;2022-11-15T00:08:32;26.30;;;20.70;;
2840;SDS011;53423;49.224;12.074;2022-11-15T00:11:00;22.50;;;20.13;;
2840;SDS011;53423;49.224;12.074;2022-11-15T00:13:29;24.47;;;20.43;;
2840;SDS011;53423;49.224;12.074;2022-11-15T00:15:58;24.83;;;22.13;;
2840;SDS011;53423;49.224;12.074;2022-11-15T00:18:29;30.10;;;24.70;;
2840;SDS011;53423;49.224;12.074;2022-11-15T00:21:03;28.03;;;23.77;;
2840;SDS011;53423;49.224;12.074;2022-11-15T00:23:32;27.20;;;23.50;;
2840;SDS011;53423;49.224;12.074;2022-11-15T00:26:00;26.43;;;22.17;;
2840;SDS011;53423;49.224;12.074;2022-11-15T00:28:28;26.23;;;21.43;;
2840;SDS011;53423;49.224;12.074;2022-11-15T00:30:59;37.47;;;25.97;;
2840;SDS011;53423;49.224;12.074;2022-11-15T00:33:29;48.57;;;28.07;;
2840;SDS011;53423;49.224;12.074;2022-11-15T00:36:01;29.40;;;22.90;;
2840;SDS011;53423;49.224;12.074;2022-11-15T00:38:31;45.30;;;22.73;;
2840;SDS011;53423;49.224;12.074;2022-11-15T00:41:00;31.83;;;23.37;;
2840;SDS011;53423;49.224;12.074;2022-11-15T00:43:34;26.17;;;22.57;;
2840;SDS011;53423;49.224;12.074;2022-11-15T00:46:02;34.77;;;24.83;;
2840;SDS011;53423;49.224;12.074;2022-11-15T00:48:32;33.13;;;23.97;;
2840;SDS011;53423;49.224;12.074;2022-11-15T00:50:59;31.50;;;24.27;;
2840;SDS011;53423;49.224;12.074;2022-11-15T00:53:27;52.93;;;24.93;;
2840;SDS011;53423;49.224;12.074;2022-11-15T00:55:56;42.97;;;24.90;;
2840;SDS011;53423;49.224;12.074;2022-11-15T00:58:24;52.47;;;26.70;;
2840;SDS011;53423;49.224;12.074;2022-11-15T01:00:52;42.67;;;23.07;;
2840;SDS011;53423;49.224;12.074;2022-11-15T01:03:21;63.93;;;28.13;;
2840;SDS011;53423;49.224;12.074;2022-11-15T01:05:50;55.33;;;24.50;;
2840;SDS011;53423;49.224;12.074;2022-11-15T01:08:18;46.23;;;24.47;;
2840;SDS011;53423;49.224;12.074;2022-11-15T01:10:46;44.03;;;23.73;;
2840;SDS011;53423;49.224;12.074;2022-11-15T01:13:13;45.23;;;23.83;;
2840;SDS011;53423;49.224;12.074;2022-11-15T01:15:41;45.70;;;24.37;;
2840;SDS011;53423;49.224;12.074;2022-11-15T01:18:09;50.73;;;26.50;;
2840;SDS011;53423;49.224;12.074;2022-11-15T01:20:39;63.40;;;28.27;;
2840;SDS011;53423;49.224;12.074;2022-11-15T01:23:09;38.67;;;23.50;;
2840;SDS011;53423;49.224;12.074;2022-11-15T01:25:37;43.60;;;26.13;;
2840;SDS011;53423;49.224;12.074;2022-11-15T01:28:05;31.63;;;21.80;;
2840;SDS011;53423;49.224;12.074;2022-11-15T01:30:33;31.77;;;20.17;;
2840;SDS011;53423;49.224;12.074;2022-11-15T01:33:03;30.07;;;21.40;;
2840;SDS011;53423;49.224;12.074;2022-11-15T01:35:31;44.00;;;26.30;;
2840;SDS011;53423;49.224;12.074;2022-11-15T01:37:58;40.73;;;24.30;;
2840;SDS011;53423;49.224;12.074;2022-11-15T01:40:28;55.27;;;24.87;;
2840;SDS011;53423;49.224;12.074;2022-11-15T01:42:56;60.60;;;24.30;;
2840;SDS011;53423;49.224;12.074;2022-11-15T01:45:23;58.53;;;25.47;;
2840;SDS011;53423;49.224;12.074;2022-11-15T01:47:52;91.93;;;27.30;;
2840;SDS011;53423;49.224;12.074;2022-11-15T01:50:22;103.80;;;28.33;;
2840;SDS011;53423;49.224;12.074;2022-11-15T01:52:54;118.80;;;29.23;;
2840;SDS011;53423;49.224;12.074;2022-11-15T01:55:23;118.17;;;28.13;;
2840;SDS011;53423;49.224;12.074;2022-11-15T01:57:56;145.93;;;29.73;;
2840;SDS011;53423;49.224;12.074;2022-11-15T02:00:27;91.30;;;25.20;;
2840;SDS011;53423;49.224;12.074;2022-11-15T02:02:56;87.67;;;20.93;;
2840;SDS011;53423;49.224;12.074;2022-11-15T02:05:25;123.13;;;24.17;;
2840;SDS011;53423;49.224;12.074;2022-11-15T02:07:53;112.90;;;25.27;;
2840;SDS011;53423;49.224;12.074;2022-11-15T02:10:22;135.20;;;24.13;;
2840;SDS011;53423;49.224;12.074;2022-11-15T02:12:51;86.10;;;24.43;;
2840;SDS011;53423;49.224;12.074;2022-11-15T02:15:22;72.07;;;21.70;;
2840;SDS011;53423;49.224;12.074;2022-11-15T02:17:58;87.67;;;24.00;;
2840;SDS011;53423;49.224;12.074;2022-11-15T02:20:43;84.60;;;24.13;;
2840;SDS011;53423;49.224;12.074;2022-11-15T02:23:53;58.57;;;21.50;;
2840;SDS011;53423;49.224;12.074;2022-11-15T02:29:37;52.80;;;18.70;;
2840;SDS011;53423;49.224;12.074;2022-11-15T02:32:23;56.13;;;17.53;;
2840;SDS011;53423;49.224;12.074;2022-11-15T02:35:02;48.50;;;16.33;;
2840;SDS011;53423;49.224;12.074;2022-11-15T02:37:39;41.70;;;16.83;;
2840;SDS011;53423;49.224;12.074;2022-11-15T02:40:13;39.97;;;17.13;;
2840;SDS011;53423;49.224;12.074;2022-11-15T02:42:49;32.93;;;17.20;;
2840;SDS011;53423;49.224;12.074;2022-11-15T02:45:40;37.87;;;14.90;;
2840;SDS011;53423;49.224;12.074;2022-11-15T02:48:14;35.70;;;18.60;;
2840;SDS011;53423;49.224;12.074;2022-11-15T02:50:44;46.23;;;19.93;;
2840;SDS011;53423;49.224;12.074;2022-11-15T02:53:13;34.17;;;17.27;;
2840;SDS011;53423;49.224;12.074;2022-11-15T02:55:43;42.07;;;19.27;;
2840;SDS011;53423;49.224;12.074;2022-11-15T03:01:06;34.00;;;15.93;;
2840;SDS011;53423;49.224;12.074;2022-11-15T03:03:46;37.97;;;17.47;;
2840;SDS011;53423;49.224;12.074;2022-11-15T03:06:25;28.83;;;17.57;;
2840;SDS011;53423;49.224;12.074;2022-11-15T03:09:02;37.00;;;18.43;;
2840;SDS011;53423;49.224;12.074;2022-11-15T03:11:35;38.80;;;18.03;;
2840;SDS011;53423;49.224;12.074;2022-11-15T03:14:10;36.57;;;18.80;;
2840;SDS011;53423;49.224;12.074;2022-11-15T03:16:47;33.23;;;17.80;;
2840;SDS011;53423;49.224;12.074;2022-11-15T03:19:24;41.40;;;16.60;;
2840;SDS011;53423;49.224;12.074;2022-11-15T03:21:59;29.97;;;16.10;;
2840;SDS011;53423;49.224;12.074;2022-11-15T03:24:31;35.90;;;17.70;;
2840;SDS011;53423;49.224;12.074;2022-11-15T03:27:03;36.33;;;14.63;;
2840;SDS011;53423;49.224;12.074;2022-11-15T03:29:34;46.13;;;15.00;;
2840;SDS011;53423;49.224;12.074;2022-11-15T03:32:06;35.87;;;15.70;;
2840;SDS011;53423;49.224;12.074;2022-11-15T03:34:46;40.70;;;16.30;;
2840;SDS011;53423;49.224;12.074;2022-11-15T03:37:20;30.80;;;15.43;;
2840;SDS011;53423;49.224;12.074;2022-11-15T03:39:50;37.30;;;14.77;;
2840;SDS011;53423;49.224;12.074;2022-11-15T03:42:20;29.53;;;14.37;;
2840;SDS011;53423;49.224;12.074;2022-11-15T03:44:57;51.97;;;14.47;;
2840;SDS011;53423;49.224;12.074;2022-11-15T03:47:30;57.50;;;15.53;;
2840;SDS011;53423;49.224;12.074;2022-11-15T03:50:04;77.50;;;17.53;;
2840;SDS011;53423;49.224;12.074;2022-11-15T03:52:36;56.20;;;15.10;;
2840;SDS011;53423;49.224;12.074;2022-11-15T03:55:05;56.37;;;14.00;;
2840;SDS011;53423;49.224;12.074;2022-11-15T03:57:35;52.47;;;14.50;;
2840;SDS011;53423;49.224;12.074;2022-11-15T04:00:04;39.07;;;13.83;;
2840;SDS011;53423;49.224;12.074;2022-11-15T04:02:33;34.60;;;13.17;;
2840;SDS011;53423;49.224;12.074;2022-11-15T04:05:00;49.13;;;13.73;;
2840;SDS011;53423;49.224;12.074;2022-11-15T04:07:30;54.80;;;14.80;;
2840;SDS011;53423;49.224;12.074;2022-11-15T04:09:58;65.77;;;15.43;;
2840;SDS011;53423;49.224;12.074;2022-11-15T04:12:29;60.53;;;14.47;;
2840;SDS011;53423;49.224;12.074;2022-11-15T04:15:00;64.20;;;14.53;;
2840;SDS011;53423;49.224;12.074;2022-11-15T04:17:36;53.03;;;14.50;;
2840;SDS011;53423;49.224;12.074;2022-11-15T04:20:08;48.67;;;14.17;;
2840;SDS011;53423;49.224;12.074;2022-11-15T04:22:55;49.73;;;14.17;;
2840;SDS011;53423;49.224;12.074;2022-11-15T04:25:42;43.77;;;14.17;;
2840;SDS011;53423;49.224;12.074;2022-11-15T04:28:13;42.60;;;13.63;;
2840;SDS011;53423;49.224;12.074;2022-11-15T04:30:41;75.70;;;13.90;;
2840;SDS011;53423;49.224;12.074;2022-11-15T04:33:09;50.67;;;13.63;;
2840;SDS011;53423;49.224;12.074;2022-11-15T04:35:39;48.33;;;14.03;;
2840;SDS011;53423;49.224;12.074;2022-11-15T04:38:07;47.73;;;13.83;;
2840;SDS011;53423;49.224;12.074;2022-11-15T04:40:35;30.37;;;14.03;;
2840;SDS011;53423;49.224;12.074;2022-11-15T04:43:04;35.47;;;13.40;;
2840;SDS011;53423;49.224;12.074;2022-11-15T04:45:32;26.13;;;13.33;;
2840;SDS011;53423;49.224;12.074;2022-11-15T04:48:00;31.07;;;12.57;;
2840;SDS011;53423;49.224;12.074;2022-11-15T04:50:28;24.50;;;15.50;;
2840;SDS011;53423;49.224;12.074;2022-11-15T04:52:57;24.17;;;15.17;;
2840;SDS011;53423;49.224;12.074;2022-11-15T04:55:25;30.30;;;15.50;;
2840;SDS011;53423;49.224;12.074;2022-11-15T04:57:59;24.30;;;14.53;;
2840;SDS011;53423;49.224;12.074;2022-11-15T05:00:28;31.73;;;13.43;;
2840;SDS011;53423;49.224;12.074;2022-11-15T05:02:57;34.20;;;13.77;;
2840;SDS011;53423;49.224;12.074;2022-11-15T05:05:42;17.87;;;11.90;;
2840;SDS011;53423;49.224;12.074;2022-11-15T05:08:12;17.97;;;11.90;;
2840;SDS011;53423;49.224;12.074;2022-11-15T05:10:40;13.30;;;11.77;;
2840;SDS011;53423;49.224;12.074;2022-11-15T05:13:08;30.97;;;13.23;;
2840;SDS011;53423;49.224;12.074;2022-11-15T05:15:35;18.70;;;12.27;;
2840;SDS011;53423;49.224;12.074;2022-11-15T05:18:03;23.67;;;12.63;;
2840;SDS011;53423;49.224;12.074;2022-11-15T05:20:31;35.47;;;13.90;;
2840;SDS011;53423;49.224;12.074;2022-11-15T05:23:00;39.97;;;14.47;;
2840;SDS011;53423;49.224;12.074;2022-11-15T05:25:29;46.43;;;15.03;;
2840;SDS011;53423;49.224;12.074;2022-11-15T05:27:57;32.43;;;14.13;;
2840;SDS011;53423;49.224;12.074;2022-11-15T05:30:25;33.77;;;14.73;;
2840;SDS011;53423;49.224;12.074;2022-11-15T05:32:53;34.80;;;13.77;;
2840;SDS011;53423;49.224;12.074;2022-11-15T05:35:22;30.50;;;13.80;;
2840;SDS011;53423;49.224;12.074;2022-11-15T05:37:57;25.80;;;16.27;;
2840;SDS011;53423;49.224;12.074;2022-11-15T05:40:25;22.70;;;14.07;;
2840;SDS011;53423;49.224;12.074;2022-11-15T05:42:54;29.03;;;18.40;;
2840;SDS011;53423;49.224;12.074;2022-11-15T05:45:23;44.73;;;22.30;;
2840;SDS011;53423;49.224;12.074;2022-11-15T05:47:52;26.87;;;16.10;;
2840;SDS011;53423;49.224;12.074;2022-11-15T05:50:22;21.00;;;14.90;;
2840;SDS011;53423;49.224;12.074;2022-11-15T05:52:50;34.83;;;14.77;;
2840;SDS011;53423;49.224;12.074;2022-11-15T05:55:19;29.50;;;14.07;;
2840;SDS011;53423;49.224;12.074;2022-11-15T05:57:47;49.67;;;14.70;;
2840;SDS011;53423;49.224;12.074;2022-11-15T06:00:17;39.47;;;13.93;;
2840;SDS011;53423;49.224;12.074;2022-11-15T06:02:45;32.23;;;12.77;;
2840;SDS011;53423;49.224;12.074;2022-11-15T06:05:13;16.47;;;12.03;;
2840;SDS011;53423;49.224;12.074;2022-11-15T06:07:41;43.50;;;14.67;;
2840;SDS011;53423;49.224;12.074;2022-11-15T06:10:10;68.03;;;15.13;;
2840;SDS011;53423;49.224;12.074;2022-11-15T06:12:38;57.30;;;15.37;;
2840;SDS011;53423;49.224;12.074;2022-11-15T06:15:06;48.97;;;14.63;;
2840;SDS011;53423;49.224;12.074;2022-11-15T06:17:36;48.23;;;15.30;;
2840;SDS011;53423;49.224;12.074;2022-11-15T06:20:04;39.17;;;15.67;;
2840;SDS011;53423;49.224;12.074;2022-11-15T06:22:33;56.30;;;14.00;;
2840;SDS011;53423;49.224;12.074;2022-11-15T06:25:01;53.87;;;17.30;;
2840;SDS011;53423;49.224;12.074;2022-11-15T06:27:31;57.17;;;15.67;;
2840;SDS011;53423;49.224;12.074;2022-11-15T06:29:59;31.00;;;14.03;;
2840;SDS011;53423;49.224;12.074;2022-11-15T06:32:28;28.97;;;14.33;;
2840;SDS011;53423;49.224;12.074;2022-11-15T06:34:57;20.83;;;12.87;;
2840;SDS011;53423;49.224;12.074;2022-11-15T06:37:25;43.70;;;14.70;;
2840;SDS011;53423;49.224;12.074;2022-11-15T06:39:53;48.80;;;14.73;;
2840;SDS011;53423;49.224;12.074;2022-11-15T06:42:21;41.73;;;12.87;;
2840;SDS011;53423;49.224;12.074;2022-11-15T06:44:49;28.87;;;14.40;;
2840;SDS011;53423;49.224;12.074;2022-11-15T06:47:17;55.97;;;17.20;;
2840;SDS011;53423;49.224;12.074;2022-11-15T06:49:45;57.33;;;16.33;;
2840;SDS011;53423;49.224;12.074;2022-11-15T06:52:14;29.30;;;12.60;;
2840;SDS011;53423;49.224;12.074;2022-11-15T06:54:44;23.83;;;12.10;;
2840;SDS011;53423;49.224;12.074;2022-11-15T06:57:12;24.67;;;11.93;;
2840;SDS011;53423;49.224;12.074;2022-11-15T06:59:40;26.10;;;12.33;;
2840;SDS011;53423;49.224;12.074;2022-11-15T07:02:11;31.93;;;12.37;;
2840;SDS011;53423;49.224;12.074;2022-11-15T07:04:40;30.13;;;11.97;;
2840;SDS011;53423;49.224;12.074;2022-11-15T07:07:07;22.40;;;11.30;;
2840;SDS011;53423;49.224;12.074;2022-11-15T07:09:37;25.03;;;12.30;;
2840;SDS011;53423;49.224;12.074;2022-11-15T07:12:05;32.67;;;12.93;;
2840;SDS011;53423;49.224;12.074;2022-11-15T07:14:33;46.63;;;13.40;;
2840;SDS011;53423;49.224;12.074;2022-11-15T07:17:03;33.50;;;12.83;;
2840;SDS011;53423;49.224;12.074;2022-11-15T07:19:31;28.57;;;13.43;;
2840;SDS011;53423;49.224;12.074;2022-11-15T07:21:59;18.80;;;12.70;;
2840;SDS011;53423;49.224;12.074;2022-11-15T07:24:27;31.03;;;13.30;;
2840;SDS011;53423;49.224;12.074;2022-11-15T07:26:56;46.53;;;15.83;;
2840;SDS011;53423;49.224;12.074;2022-11-15T07:29:24;31.10;;;14.97;;
2840;SDS011;53423;49.224;12.074;2022-11-15T07:31:52;33.63;;;15.23;;
2840;SDS011;53423;49.224;12.074;2022-11-15T07:34:20;25.10;;;14.47;;
2840;SDS011;53423;49.224;12.074;2022-11-15T07:36:48;64.17;;;15.70;;
2840;SDS011;53423;49.224;12.074;2022-11-15T07:39:16;21.97;;;13.87;;
2840;SDS011;53423;49.224;12.074;2022-11-15T07:41:44;25.03;;;14.27;;
2840;SDS011;53423;49.224;12.074;2022-11-15T07:44:15;18.73;;;14.40;;
2840;SDS011;53423;49.224;12.074;2022-11-15T07:46:43;16.93;;;12.40;;
2840;SDS011;53423;49.224;12.074;2022-11-15T07:49:11;23.63;;;12.70;;
2840;SDS011;53423;49.224;12.074;2022-11-15T07:51:39;35.07;;;12.83;;
2840;SDS011;53423;49.224;12.074;2022-11-15T07:54:07;30.33;;;12.70;;
2840;SDS011;53423;49.224;12.074;2022-11-15T07:56:34;34.43;;;12.20;;
2840;SDS011;53423;49.224;12.074;2022-11-15T07:59:02;45.63;;;12.27;;
2840;SDS011;53423;49.224;12.074;2022-11-15T08:01:31;50.57;;;12.90;;
2840;SDS011;53423;49.224;12.074;2022-11-15T08:03:59;29.07;;;12.07;;
2840;SDS011;53423;49.224;12.074;2022-11-15T08:06:27;15.83;;;11.87;;
2840;SDS011;53423;49.224;12.074;2022-11-15T08:08:56;54.30;;;12.93;;
2840;SDS011;53423;49.224;12.074;2022-11-15T08:11:24;45.90;;;12.23;;
2840;SDS011;53423;49.224;12.074;2022-11-15T08:13:52;17.87;;;11.37;;
2840;SDS011;53423;49.224;12.074;2022-11-15T08:16:19;89.93;;;13.80;;
2840;SDS011;53423;49.224;12.074;2022-11-15T08:18:49;49.17;;;12.10;;
2840;SDS011;53423;49.224;12.074;2022-11-15T08:21:17;78.70;;;13.90;;
2840;SDS011;53423;49.224;12.074;2022-11-15T08:23:46;38.03;;;11.90;;
2840;SDS011;53423;49.224;12.074;2022-11-15T08:26:14;21.47;;;12.30;;
2840;SDS011;53423;49.224;12.074;2022-11-15T08:28:42;38.07;;;12.40;;
2840;SDS011;53423;49.224;12.074;2022-11-15T08:31:13;40.30;;;12.50;;
2840;SDS011;53423;49.224;12.074;2022-11-15T08:33:43;16.57;;;13.47;;
2840;SDS011;53423;49.224;12.074;2022-11-15T08:36:14;48.80;;;13.80;;
2840;SDS011;53423;49.224;12.074;2022-11-15T08:38:43;21.20;;;12.40;;
2840;SDS011;53423;49.224;12.074;2022-11-15T08:41:13;26.37;;;12.57;;
2840;SDS011;53423;49.224;12.074;2022-11-15T08:43:46;20.23;;;11.87;;
2840;SDS011;53423;49.224;12.074;2022-11-15T08:46:14;20.87;;;15.50;;
2840;SDS011;53423;49.224;12.074;2022-11-15T08:48:42;39.33;;;11.60;;
2840;SDS011;53423;49.224;12.074;2022-11-15T08:51:10;27.73;;;10.97;;
2840;SDS011;53423;49.224;12.074;2022-11-15T08:53:39;15.57;;;10.87;;
2840;SDS011;53423;49.224;12.074;2022-11-15T08:56:07;24.57;;;11.10;;
2840;SDS011;53423;49.224;12.074;2022-11-15T08:58:36;28.80;;;11.13;;
2840;SDS011;53423;49.224;12.074;2022-11-15T09:01:04;24.43;;;10.43;;
2840;SDS011;53423;49.224;12.074;2022-11-15T09:03:32;17.30;;;10.60;;
2840;SDS011;53423;49.224;12.074;2022-11-15T09:06:00;13.90;;;9.73;;
2840;SDS011;53423;49.224;12.074;2022-11-15T09:08:29;11.30;;;9.87;;
2840;SDS011;53423;49.224;12.074;2022-11-15T09:11:14;11.47;;;10.07;;
2840;SDS011;53423;49.224;12.074;2022-11-15T09:13:46;11.97;;;10.47;;
2840;SDS011;53423;49.224;12.074;2022-11-15T09:16:14;10.93;;;9.93;;
2840;SDS011;53423;49.224;12.074;2022-11-15T09:18:42;11.97;;;10.90;;
2840;SDS011;53423;49.224;12.074;2022-11-15T09:21:10;13.77;;;12.47;;
2840;SDS011;53423;49.224;12.074;2022-11-15T09:23:38;13.80;;;12.40;;
2840;SDS011;53423;49.224;12.074;2022-11-15T09:26:06;13.37;;;12.10;;
2840;SDS011;53423;49.224;12.074;2022-11-15T09:28:36;15.23;;;13.63;;
2840;SDS011;53423;49.224;12.074;2022-11-15T09:31:05;12.97;;;11.17;;
2840;SDS011;53423;49.224;12.074;2022-11-15T09:33:33;11.70;;;10.70;;
2840;SDS011;53423;49.224;12.074;2022-11-15T09:36:01;10.97;;;9.97;;
2840;SDS011;53423;49.224;12.074;2022-11-15T09:38:31;11.57;;;10.40;;
2840;SDS011;53423;49.224;12.074;2022-11-15T09:44:13;11.43;;;10.43;;
2840;SDS011;53423;49.224;12.074;2022-11-15T09:46:58;11.87;;;10.77;;
2840;SDS011;53423;49.224;12.074;2022-11-15T09:49:33;12.07;;;10.90;;
2840;SDS011;53423;49.224;12.074;2022-11-15T09:52:01;11.37;;;10.30;;
2840;SDS011;53423;49.224;12.074;2022-11-15T09:54:30;11.27;;;10.33;;
2840;SDS011;53423;49.224;12.074;2022-11-15T09:57:20;11.40;;;10.47;;
2840;SDS011;53423;49.224;12.074;2022-11-15T10:00:00;10.47;;;9.57;;
2840;SDS011;53423;49.224;12.074;2022-11-15T10:03:00;10.90;;;10.00;;
2840;SDS011;53423;49.224;12.074;2022-11-15T10:05:37;11.60;;;10.60;;
2840;SDS011;53423;49.224;12.074;2022-11-15T10:08:11;11.33;;;10.33;;
2840;SDS011;53423;49.224;12.074;2022-11-15T10:10:51;11.57;;;10.50;;
2840;SDS011;53423;49.224;12.074;2022-11-15T10:13:43;10.63;;;9.73;;
2840;SDS011;53423;49.224;12.074;2022-11-15T10:16:17;12.63;;;11.53;;
2840;SDS011;53423;49.224;12.074;2022-11-15T10:18:57;12.97;;;11.87;;
2840;SDS011;53423;49.224;12.074;2022-11-15T10:21:32;12.47;;;11.37;;
2840;SDS011;53423;49.224;12.074;2022-11-15T10:24:10;11.80;;;10.80;;
2840;SDS011;53423;49.224;12.074;2022-11-15T10:26:39;11.93;;;10.93;;
2840;SDS011;53423;49.224;12.074;2022-11-15T10:29:17;11.63;;;10.63;;
2840;SDS011;53423;49.224;12.074;2022-11-15T10:31:53;12.10;;;11.10;;
2840;SDS011;53423;49.224;12.074;2022-11-15T10:34:22;13.03;;;11.93;;
2840;SDS011;53423;49.224;12.074;2022-11-15T10:36:54;12.27;;;11.17;;
2840;SDS011;53423;49.224;12.074;2022-11-15T10:39:23;12.27;;;11.20;;
2840;SDS011;53423;49.224;12.074;2022-11-15T10:41:52;13.63;;;12.43;;
2840;SDS011;53423;49.224;12.074;2022-11-15T10:44:21;13.40;;;12.30;;
2840;SDS011;53423;49.224;12.074;2022-11-15T10:50:11;11.40;;;10.50;;
2840;SDS011;53423;49.224;12.074;2022-11-15T10:52:55;11.00;;;10.10;;
2840;SDS011;53423;49.224;12.074;2022-11-15T10:55:24;10.40;;;9.60;;
2840;SDS011;53423;49.224;12.074;2022-11-15T10:57:55;11.20;;;10.10;;
2840;SDS011;53423;49.224;12.074;2022-11-15T11:00:31;9.97;;;8.97;;
2840;SDS011;53423;49.224;12.074;2022-11-15T11:03:02;9.13;;;8.33;;
2840;SDS011;53423;49.224;12.074;2022-11-15T11:05:36;9.43;;;8.63;;
2840;SDS011;53423;49.224;12.074;2022-11-15T11:08:20;10.00;;;9.10;;
2840;SDS011;53423;49.224;12.074;2022-11-15T11:10:51;10.00;;;9.20;;
2840;SDS011;53423;49.224;12.074;2022-11-15T11:13:28;9.80;;;9.00;;
2840;SDS011;53423;49.224;12.074;2022-11-15T11:15:59;8.97;;;8.17;;
2840;SDS011;53423;49.224;12.074;2022-11-15T11:18:49;8.63;;;7.83;;
2840;SDS011;53423;49.224;12.074;2022-11-15T11:21:39;8.93;;;8.23;;
2840;SDS011;53423;49.224;12.074;2022-11-15T11:24:21;10.17;;;9.37;;
2840;SDS011;53423;49.224;12.074;2022-11-15T11:27:03;8.13;;;7.47;;
2840;SDS011;53423;49.224;12.074;2022-11-15T11:29:49;9.17;;;8.47;;
2840;SDS011;53423;49.224;12.074;2022-11-15T11:32:33;8.17;;;7.47;;
2840;SDS011;53423;49.224;12.074;2022-11-15T11:35:11;8.90;;;8.20;;
2840;SDS011;53423;49.224;12.074;2022-11-15T11:37:45;9.50;;;8.73;;
2840;SDS011;53423;49.224;12.074;2022-11-15T11:40:20;8.80;;;8.17;;
2840;SDS011;53423;49.224;12.074;2022-11-15T11:42:58;8.27;;;7.63;;
2840;SDS011;53423;49.224;12.074;2022-11-15T11:45:44;8.53;;;7.83;;
2840;SDS011;53423;49.224;12.074;2022-11-15T11:48:38;8.77;;;7.97;;
2840;SDS011;53423;49.224;12.074;2022-11-15T11:51:11;8.27;;;7.57;;
2840;SDS011;53423;49.224;12.074;2022-11-15T11:53:49;8.38;;;7.57;;
2840;SDS011;53423;49.224;12.074;2022-11-15T11:56:25;8.63;;;7.93;;
2840;SDS011;53423;49.224;12.074;2022-11-15T11:58:57;7.65;;;6.95;;
2840;SDS011;53423;49.224;12.074;2022-11-15T12:01:31;8.07;;;7.00;;
2840;SDS011;53423;49.224;12.074;2022-11-15T12:04:05;7.32;;;6.68;;
2840;SDS011;53423;49.224;12.074;2022-11-15T12:06:41;10.60;;;9.60;;
2840;SDS011;53423;49.224;12.074;2022-11-15T12:09:17;11.18;;;10.18;;
2840;SDS011;53423;49.224;12.074;2022-11-15T12:11:54;9.65;;;8.75;;
2840;SDS011;53423;49.224;12.074;2022-11-15T12:14:30;10.43;;;8.57;;
2840;SDS011;53423;49.224;12.074;2022-11-15T12:17:03;8.00;;;7.30;;
2840;SDS011;53423;49.224;12.074;2022-11-15T12:19:31;7.20;;;6.70;;
2840;SDS011;53423;49.224;12.074;2022-11-15T12:22:00;7.80;;;7.03;;
2840;SDS011;53423;49.224;12.074;2022-11-15T12:24:37;8.43;;;7.70;;
2840;SDS011;53423;49.224;12.074;2022-11-15T12:27:12;8.07;;;7.22;;
2840;SDS011;53423;49.224;12.074;2022-11-15T12:29:52;7.38;;;6.72;;
2840;SDS011;53423;49.224;12.074;2022-11-15T12:32:25;7.18;;;6.47;;
2840;SDS011;53423;49.224;12.074;2022-11-15T12:34:56;6.95;;;6.32;;
2840;SDS011;53423;49.224;12.074;2022-11-15T12:37:46;6.78;;;6.15;;
2840;SDS011;53423;49.224;12.074;2022-11-15T12:40:21;6.85;;;6.25;;
2840;SDS011;53423;49.224;12.074;2022-11-15T12:43:04;8.00;;;7.30;;
2840;SDS011;53423;49.224;12.074;2022-11-15T12:46:01;7.15;;;6.45;;
2840;SDS011;53423;49.224;12.074;2022-11-15T12:51:21;7.33;;;6.73;;
2840;SDS011;53423;49.224;12.074;2022-11-15T12:57:32;7.57;;;6.77;;
2840;SDS011;53423;49.224;12.074;2022-11-15T13:03:16;7.57;;;6.87;;
2840;SDS011;53423;49.224;12.074;2022-11-15T13:06:04;7.40;;;6.70;;
2840;SDS011;53423;49.224;12.074;2022-11-15T13:08:35;7.43;;;6.73;;
2840;SDS011;53423;49.224;12.074;2022-11-15T13:17:25;7.67;;;6.97;;
2840;SDS011;53423;49.224;12.074;2022-11-15T13:20:01;6.93;;;6.33;;
2840;SDS011;53423;49.224;12.074;2022-11-15T13:22:45;7.60;;;6.90;;
2840;SDS011;53423;49.224;12.074;2022-11-15T13:25:27;7.60;;;6.90;;
2840;SDS011;53423;49.224;12.074;2022-11-15T13:28:17;7.97;;;7.17;;
2840;SDS011;53423;49.224;12.074;2022-11-15T13:30:55;7.77;;;6.97;;
2840;SDS011;53423;49.224;12.074;2022-11-15T13:33:27;10.33;;;7.57;;
2840;SDS011;53423;49.224;12.074;2022-11-15T13:36:02;7.90;;;7.10;;
2840;SDS011;53423;49.224;12.074;2022-11-15T13:38:34;8.30;;;7.40;;
2840;SDS011;53423;49.224;12.074;2022-11-15T13:41:11;8.07;;;7.20;;
2840;SDS011;53423;49.224;12.074;2022-11-15T13:43:46;7.67;;;6.97;;
2840;SDS011;53423;49.224;12.074;2022-11-15T13:46:16;7.87;;;7.17;;
2840;SDS011;53423;49.224;12.074;2022-11-15T13:48:51;7.33;;;6.67;;
2840;SDS011;53423;49.224;12.074;2022-11-15T13:51:35;8.20;;;7.40;;
2840;SDS011;53423;49.224;12.074;2022-11-15T13:54:13;7.60;;;7.00;;
2840;SDS011;53423;49.224;12.074;2022-11-15T13:56:46;9.03;;;6.90;;
2840;SDS011;53423;49.224;12.074;2022-11-15T13:59:24;8.47;;;7.10;;
2840;SDS011;53423;49.224;12.074;2022-11-15T14:01:54;8.40;;;7.60;;
2840;SDS011;53423;49.224;12.074;2022-11-15T14:04:26;6.97;;;6.37;;
2840;SDS011;53423;49.224;12.074;2022-11-15T14:06:57;7.93;;;7.13;;
2840;SDS011;53423;49.224;12.074;2022-11-15T14:09:31;7.47;;;6.70;;
2840;SDS011;53423;49.224;12.074;2022-11-15T14:12:01;7.97;;;7.27;;
2840;SDS011;53423;49.224;12.074;2022-11-15T14:14:48;7.83;;;7.13;;
2840;SDS011;53423;49.224;12.074;2022-11-15T14:17:19;8.10;;;7.30;;
2840;SDS011;53423;49.224;12.074;2022-11-15T14:19:51;7.97;;;7.27;;
2840;SDS011;53423;49.224;12.074;2022-11-15T14:22:20;7.90;;;7.20;;
2840;SDS011;53423;49.224;12.074;2022-11-15T14:25:06;7.30;;;6.60;;
2840;SDS011;53423;49.224;12.074;2022-11-15T14:27:43;8.17;;;7.37;;
2840;SDS011;53423;49.224;12.074;2022-11-15T14:30:28;8.70;;;7.90;;
2840;SDS011;53423;49.224;12.074;2022-11-15T14:32:56;8.67;;;7.87;;
2840;SDS011;53423;49.224;12.074;2022-11-15T14:35:26;9.90;;;7.47;;
2840;SDS011;53423;49.224;12.074;2022-11-15T14:37:54;8.43;;;6.77;;
2840;SDS011;53423;49.224;12.074;2022-11-15T14:40:22;7.73;;;7.03;;
2840;SDS011;53423;49.224;12.074;2022-11-15T14:42:50;7.57;;;6.87;;
2840;SDS011;53423;49.224;12.074;2022-11-15T14:45:18;8.50;;;7.67;;
2840;SDS011;53423;49.224;12.074;2022-11-15T14:47:47;8.03;;;7.23;;
2840;SDS011;53423;49.224;12.074;2022-11-15T14:50:16;7.73;;;7.03;;
2840;SDS011;53423;49.224;12.074;2022-11-15T14:52:47;8.33;;;7.00;;
2840;SDS011;53423;49.224;12.074;2022-11-15T14:55:17;9.53;;;7.93;;
2840;SDS011;53423;49.224;12.074;2022-11-15T15:01:23;10.67;;;7.60;;
2840;SDS011;53423;49.224;12.074;2022-11-15T15:03:52;10.53;;;7.63;;
2840;SDS011;53423;49.224;12.074;2022-11-15T15:06:23;10.67;;;8.30;;
2840;SDS011;53423;49.224;12.074;2022-11-15T15:08:53;10.97;;;8.23;;
2840;SDS011;53423;49.224;12.074;2022-11-15T15:11:21;9.80;;;7.37;;
2840;SDS011;53423;49.224;12.074;2022-11-15T15:13:54;8.23;;;7.43;;
2840;SDS011;53423;49.224;12.074;2022-11-15T15:16:23;10.80;;;8.13;;
2840;SDS011;53423;49.224;12.074;2022-11-15T15:18:51;9.17;;;8.07;;
2840;SDS011;53423;49.224;12.074;2022-11-15T15:21:20;9.27;;;8.30;;
2840;SDS011;53423;49.224;12.074;2022-11-15T15:23:49;10.93;;;8.67;;
2840;SDS011;53423;49.224;12.074;2022-11-15T15:26:19;10.70;;;9.27;;
2840;SDS011;53423;49.224;12.074;2022-11-15T15:28:47;9.33;;;8.43;;